Fuerteventura (La Oliva), Spain
Current Conditions -  °F | °C
As of 10:00 PM on Friday 24 Oct 2014 (Local Time) from GCFV Reporting Station
Few Clouds Few Clouds  
Wind Chill: 23°   Ceiling: Unl
Heat Index: 23°   Visibility: 6mi
Dew Point: 21°   Wind: 3mph
Humidity: 88%   Direction: 20°NNE
Pressure: 30"   Gusts: NA
Location:  28.6°N, 13.93°W
Report Text: GCFV 242100Z 02003KT 9999 FEW020 23/21 Q1016
Loading
Personal Weather Stations






























Interactive Weather Map
Tropical Storm Tracking
New forecast layout! Learn more

10-Day Weather Forecast

Advertisements
Track Severe Weather on mobile